createdAt,value
2019-02-16T00:00:19.344Z,21.05
2019-02-16T00:02:52.217Z,15.83
2019-02-16T00:05:22.609Z,15.85
2019-02-16T00:07:54.924Z,15.53
2019-02-16T00:10:27.267Z,14.33
2019-02-16T00:12:58.876Z,13.22
2019-02-16T00:15:31.078Z,12.47
2019-02-16T00:18:02.962Z,13.13
2019-02-16T00:20:37.140Z,12.63
2019-02-16T00:23:08.268Z,13.28
2019-02-16T00:25:40.346Z,13.75
2019-02-16T00:28:12.496Z,13.45
2019-02-16T00:30:45.669Z,13.25
2019-02-16T00:33:18.281Z,14.50
2019-02-16T00:35:49.795Z,13.40
2019-02-16T00:38:20.129Z,13.22
2019-02-16T00:40:51.405Z,12.43
2019-02-16T00:43:22.815Z,13.08
2019-02-16T00:45:54.123Z,12.20
2019-02-16T00:48:24.779Z,12.70
2019-02-16T00:50:57.640Z,12.15
2019-02-16T00:53:29.075Z,11.80
2019-02-16T00:55:59.534Z,12.82
2019-02-16T00:58:33.787Z,12.40
2019-02-16T01:01:09.091Z,12.15
2019-02-16T01:03:40.449Z,11.55
2019-02-16T01:06:13.121Z,12.15
2019-02-16T01:08:44.753Z,12.78
2019-02-16T01:11:16.899Z,11.73
2019-02-16T01:13:47.447Z,12.78
2019-02-16T01:16:18.387Z,12.73
2019-02-16T01:18:51.279Z,12.73
2019-02-16T01:21:25.650Z,12.03
2019-02-16T01:23:59.340Z,12.75
2019-02-16T01:26:31.931Z,12.55
2019-02-16T01:29:05.179Z,13.40
2019-02-16T01:31:37.062Z,15.15
2019-02-16T01:34:09.602Z,16.62
2019-02-16T01:36:43.785Z,13.50
2019-02-16T01:39:19.153Z,11.97
2019-02-16T01:41:51.466Z,11.28
2019-02-16T01:44:23.817Z,11.40
2019-02-16T01:46:55.708Z,10.82
2019-02-16T01:49:28.619Z,10.75
2019-02-16T01:52:03.514Z,11.78
2019-02-16T01:54:37.806Z,10.98
2019-02-16T01:57:12.325Z,11.53
2019-02-16T01:59:43.503Z,11.73
2019-02-16T02:02:15.847Z,11.05
2019-02-16T02:04:46.324Z,11.25
2019-02-16T02:07:16.710Z,11.63
2019-02-16T02:09:49.613Z,12.55
2019-02-16T02:12:21.835Z,12.13
2019-02-16T02:14:55.769Z,12.70
2019-02-16T02:17:27.394Z,11.28
2019-02-16T02:19:57.921Z,10.88
2019-02-16T02:22:28.273Z,11.48
2019-02-16T02:24:58.711Z,11.22
2019-02-16T02:27:29.197Z,12.60
2019-02-16T02:29:59.657Z,11.75
2019-02-16T02:32:30.057Z,11.63
2019-02-16T02:35:00.461Z,12.18
2019-02-16T02:37:30.897Z,11.88
2019-02-16T02:40:01.233Z,10.95
2019-02-16T02:42:31.561Z,12.37
2019-02-16T02:45:03.474Z,11.80
2019-02-16T02:47:35.026Z,12.15
2019-02-16T02:50:05.970Z,12.13
2019-02-16T02:52:36.358Z,11.50
2019-02-16T02:55:07.947Z,11.65
2019-02-16T02:57:38.438Z,11.75
2019-02-16T03:00:10.344Z,12.18
2019-02-16T03:02:40.722Z,12.13
2019-02-16T03:05:11.305Z,11.70
2019-02-16T03:07:41.757Z,11.70
2019-02-16T03:10:12.121Z,11.88
2019-02-16T03:12:42.520Z,11.68
2019-02-16T03:15:12.854Z,12.50
2019-02-16T03:17:43.177Z,12.23
2019-02-16T03:20:13.962Z,12.33
2019-02-16T03:23:11.516Z,13.30
2019-02-16T03:25:47.870Z,12.53
2019-02-16T03:29:01.119Z,13.38
2019-02-16T03:32:11.996Z,12.93
2019-02-16T03:35:33.963Z,12.88
2019-02-16T03:38:36.342Z,12.20
2019-02-16T03:41:06.695Z,12.53
2019-02-16T03:43:37.130Z,12.93
2019-02-16T03:46:07.553Z,14.18
2019-02-16T03:48:37.999Z,13.20
2019-02-16T03:51:08.415Z,12.50
2019-02-16T03:53:38.934Z,12.85
2019-02-16T03:56:09.465Z,13.80
2019-02-16T03:58:40.366Z,13.15
2019-02-16T04:01:11.834Z,12.60
2019-02-16T04:03:42.274Z,14.10
2019-02-16T04:06:12.705Z,14.13
2019-02-16T04:08:43.137Z,14.28
2019-02-16T04:11:13.568Z,14.45
2019-02-16T04:13:44.049Z,13.40
2019-02-16T04:16:25.934Z,14.18
2019-02-16T04:18:56.357Z,14.80
2019-02-16T04:21:26.698Z,13.83
2019-02-16T04:23:57.042Z,14.43
2019-02-16T04:26:27.489Z,14.93
2019-02-16T04:28:57.904Z,14.28
2019-02-16T04:31:28.627Z,15.50
2019-02-16T04:33:59.334Z,14.80
2019-02-16T04:36:29.805Z,14.87
2019-02-16T04:39:00.170Z,14.05
2019-02-16T04:41:30.509Z,14.90
2019-02-16T04:44:00.819Z,15.68
2019-02-16T04:46:31.206Z,15.25
2019-02-16T04:49:01.563Z,15.13
2019-02-16T04:51:31.883Z,15.80
2019-02-16T04:54:03.222Z,16.05
2019-02-16T04:56:33.555Z,15.90
2019-02-16T04:59:03.958Z,15.10
2019-02-16T05:01:35.332Z,15.72
2019-02-16T05:04:05.635Z,15.90
2019-02-16T05:06:36.072Z,15.75
2019-02-16T05:09:07.504Z,15.90
2019-02-16T05:11:37.839Z,16.07
2019-02-16T05:14:08.174Z,16.00
2019-02-16T05:16:38.507Z,17.02
2019-02-16T05:19:08.826Z,16.50
2019-02-16T05:21:40.226Z,16.25
2019-02-16T05:24:10.622Z,16.30
2019-02-16T05:26:41.210Z,16.30
2019-02-16T05:29:11.553Z,16.10
2019-02-16T05:31:41.868Z,16.50
2019-02-16T05:34:13.326Z,17.50
2019-02-16T05:36:43.642Z,16.82
2019-02-16T05:39:13.964Z,14.90
2019-02-16T05:41:44.720Z,15.18
2019-02-16T05:44:15.110Z,16.65
2019-02-16T05:46:45.501Z,15.65
2019-02-16T05:49:15.958Z,16.40
2019-02-16T05:51:47.131Z,15.60
2019-02-16T05:54:17.452Z,15.75
2019-02-16T05:56:48.236Z,16.23
2019-02-16T05:59:18.964Z,16.00
2019-02-16T06:01:54.070Z,16.42
2019-02-16T06:04:22.332Z,16.65
2019-02-16T06:06:52.702Z,16.62
2019-02-16T06:09:22.988Z,15.20
2019-02-16T06:11:53.274Z,15.72
2019-02-16T06:14:23.675Z,16.70
2019-02-16T06:16:54.113Z,17.42
2019-02-16T06:19:24.495Z,17.48
2019-02-16T06:21:54.888Z,16.48
2019-02-16T06:24:25.252Z,17.80
2019-02-16T06:26:55.543Z,17.02
2019-02-16T06:29:25.872Z,17.62
2019-02-16T06:31:56.195Z,18.00
2019-02-16T06:34:26.549Z,17.00
2019-02-16T06:36:56.843Z,17.52
2019-02-16T06:39:27.305Z,16.62
2019-02-16T06:41:58.067Z,17.55
2019-02-16T06:44:28.460Z,17.50
2019-02-16T06:46:58.818Z,16.20
2019-02-16T06:49:29.194Z,17.02
2019-02-16T06:52:00.221Z,17.23
2019-02-16T06:54:30.560Z,17.65
2019-02-16T06:57:19.235Z,18.55
2019-02-16T06:59:49.930Z,18.35
2019-02-16T07:02:22.662Z,18.60
2019-02-16T07:04:53.237Z,17.50
2019-02-16T07:07:23.584Z,19.15
2019-02-16T07:09:54.027Z,18.73
2019-02-16T07:12:32.161Z,17.70
2019-02-16T07:15:02.543Z,17.75
2019-02-16T07:17:39.135Z,18.37
2019-02-16T07:20:10.218Z,17.98
2019-02-16T07:22:40.593Z,18.52
2019-02-16T07:25:11.003Z,18.67
2019-02-16T07:27:41.663Z,17.73
2019-02-16T07:30:12.292Z,18.67
2019-02-16T07:32:42.610Z,16.62
2019-02-16T07:35:12.999Z,17.67
2019-02-16T07:37:43.586Z,18.62
2019-02-16T07:40:13.891Z,17.87
2019-02-16T07:42:58.318Z,17.30
2019-02-16T07:45:55.195Z,16.55
2019-02-16T07:48:44.945Z,17.82
2019-02-16T07:51:40.739Z,16.87
2019-02-16T07:54:29.873Z,15.72
2019-02-16T07:57:07.532Z,14.53
2019-02-16T08:00:01.490Z,16.05
2019-02-16T08:02:53.225Z,15.05
2019-02-16T08:05:34.391Z,15.43
2019-02-16T08:08:10.443Z,15.80
2019-02-16T08:11:05.867Z,15.00
2019-02-16T08:13:51.371Z,15.40
2019-02-16T08:16:29.367Z,14.98
2019-02-16T08:19:23.063Z,14.65
2019-02-16T08:22:21.659Z,15.80
2019-02-16T08:25:20.748Z,15.70
2019-02-16T08:27:57.869Z,15.13
2019-02-16T08:30:37.220Z,14.78
2019-02-16T08:33:41.843Z,15.98
2019-02-16T08:36:21.927Z,14.40
2019-02-16T08:39:00.966Z,15.23
2019-02-16T08:41:53.765Z,15.35
2019-02-16T08:44:47.524Z,14.55
2019-02-16T08:47:33.885Z,15.35
2019-02-16T08:50:29.947Z,15.15
2019-02-16T08:53:36.057Z,15.68
2019-02-16T08:56:22.784Z,16.17
2019-02-16T08:59:02.035Z,16.62
2019-02-16T09:01:54.803Z,15.93
2019-02-16T09:04:37.341Z,16.82
2019-02-16T09:07:25.574Z,16.93
2019-02-16T09:10:02.068Z,16.73
2019-02-16T09:12:40.903Z,17.35
2019-02-16T09:15:33.345Z,16.65
2019-02-16T09:18:20.750Z,17.65
2019-02-16T09:21:14.757Z,17.90
2019-02-16T09:23:59.418Z,16.02
2019-02-16T09:26:47.619Z,17.20
2019-02-16T09:29:30.534Z,17.07
2019-02-16T09:32:33.471Z,18.20
2019-02-16T09:35:29.238Z,16.85
2019-02-16T09:38:09.033Z,18.92
2019-02-16T09:40:52.974Z,16.93
2019-02-16T09:43:48.470Z,17.62
2019-02-16T09:46:28.233Z,18.62
2019-02-16T09:49:05.015Z,18.65
2019-02-16T09:51:58.568Z,18.60
2019-02-16T09:54:42.751Z,18.32
2019-02-16T09:57:21.018Z,17.82
2019-02-16T10:00:14.213Z,18.77
2019-02-16T10:02:56.920Z,18.60
2019-02-16T10:05:45.072Z,19.00
2019-02-16T10:08:29.225Z,19.35
2019-02-16T10:11:10.277Z,18.55
2019-02-16T10:13:57.675Z,19.82
2019-02-16T10:16:41.971Z,18.70
2019-02-16T10:19:23.551Z,19.15
2019-02-16T10:22:24.945Z,20.32
2019-02-16T10:25:05.195Z,20.20
2019-02-16T10:27:54.846Z,18.55
2019-02-16T10:30:34.241Z,19.75
2019-02-16T10:33:22.755Z,19.05
2019-02-16T10:36:03.509Z,19.52
2019-02-16T10:38:56.592Z,19.42
2019-02-16T10:41:51.971Z,19.45
2019-02-16T10:44:34.212Z,21.33
2019-02-16T10:47:11.144Z,19.92
2019-02-16T10:49:54.062Z,20.80
2019-02-16T10:52:32.984Z,21.00
2019-02-16T10:55:29.928Z,19.75
2019-02-16T10:58:15.239Z,20.70
2019-02-16T11:01:06.049Z,21.05
2019-02-16T11:03:42.822Z,20.20
2019-02-16T11:06:44.654Z,20.32
2019-02-16T11:09:28.381Z,19.37
2019-02-16T11:12:07.203Z,19.87
2019-02-16T11:14:47.884Z,19.20
2019-02-16T11:17:36.084Z,20.55
2019-02-16T11:20:17.949Z,18.90
2019-02-16T11:23:06.094Z,21.35
2019-02-16T11:26:04.868Z,21.12
2019-02-16T11:28:48.935Z,21.48
2019-02-16T11:31:43.087Z,20.57
2019-02-16T11:34:26.421Z,19.87
2019-02-16T11:37:02.435Z,20.60
2019-02-16T11:39:43.468Z,21.12
2019-02-16T11:42:44.939Z,21.25
2019-02-16T11:45:34.410Z,21.25
2019-02-16T11:48:18.929Z,21.27
2019-02-16T11:50:55.731Z,20.20
2019-02-16T11:53:40.759Z,21.45
2019-02-16T11:56:43.174Z,21.20
2019-02-16T11:59:39.141Z,21.05
2019-02-16T12:02:15.905Z,21.37
2019-02-16T12:04:51.022Z,20.55
2019-02-16T12:07:32.776Z,21.05
2019-02-16T12:10:15.503Z,21.10
2019-02-16T12:13:21.052Z,20.88
2019-02-16T12:16:02.536Z,20.60
2019-02-16T12:18:55.302Z,19.98
2019-02-16T12:21:57.295Z,20.00
2019-02-16T12:24:58.466Z,20.72
2019-02-16T12:27:43.033Z,20.20
2019-02-16T12:30:29.894Z,20.65
2019-02-16T12:33:08.263Z,20.17
2019-02-16T12:35:52.670Z,21.25
2019-02-16T12:38:36.948Z,20.60
2019-02-16T12:41:25.821Z,20.27
2019-02-16T12:44:14.191Z,19.75
2019-02-16T12:47:09.738Z,20.52
2019-02-16T12:49:47.604Z,20.72
2019-02-16T12:52:28.802Z,19.45
2019-02-16T12:55:18.205Z,18.73
2019-02-16T12:57:55.891Z,20.50
2019-02-16T13:00:44.046Z,20.60
2019-02-16T13:03:38.411Z,19.20
2019-02-16T13:06:27.571Z,19.37
2019-02-16T13:09:20.132Z,18.65
2019-02-16T13:12:08.776Z,18.75
2019-02-16T13:14:58.680Z,19.75
2019-02-16T13:17:47.066Z,19.40
2019-02-16T13:20:24.627Z,18.65
2019-02-16T13:23:02.846Z,18.65
2019-02-16T13:25:41.415Z,18.52
2019-02-16T13:28:20.499Z,19.23
2019-02-16T13:31:00.918Z,19.05
2019-02-16T13:33:51.800Z,17.37
2019-02-16T13:36:32.257Z,17.75
2019-02-16T13:39:31.618Z,17.95
2019-02-16T13:42:10.339Z,17.15
2019-02-16T13:45:00.579Z,17.75
2019-02-16T13:47:49.180Z,16.93
2019-02-16T13:50:37.962Z,16.62
2019-02-16T13:53:27.136Z,16.02
2019-02-16T13:56:14.940Z,16.42
2019-02-16T13:58:51.504Z,17.02
2019-02-16T14:01:45.471Z,16.82
2019-02-16T14:04:25.276Z,17.30
2019-02-16T14:07:05.777Z,16.85
2019-02-16T14:09:58.285Z,16.97
2019-02-16T14:12:53.806Z,16.02
2019-02-16T14:15:49.956Z,17.73
2019-02-16T14:18:20.345Z,17.90
2019-02-16T14:20:50.676Z,17.07
2019-02-16T14:23:22.033Z,17.12
2019-02-16T14:25:52.459Z,18.77
2019-02-16T14:28:23.164Z,18.23
2019-02-16T14:30:53.587Z,17.25
2019-02-16T14:33:23.939Z,17.87
2019-02-16T14:35:54.263Z,17.85
2019-02-16T14:38:31.892Z,18.32
2019-02-16T14:41:02.316Z,18.73
2019-02-16T14:43:33.832Z,18.62
2019-02-16T14:46:04.443Z,18.82
2019-02-16T14:48:35.094Z,18.48
2019-02-16T14:51:05.555Z,18.73
2019-02-16T14:53:35.850Z,19.07
2019-02-16T14:56:06.484Z,18.27
2019-02-16T14:58:36.858Z,18.35
2019-02-16T15:01:07.329Z,18.62
2019-02-16T15:03:37.663Z,17.95
2019-02-16T15:06:08.195Z,19.07
2019-02-16T15:08:38.512Z,18.98
2019-02-16T15:11:09.055Z,18.82
2019-02-16T15:13:39.344Z,19.25
2019-02-16T15:16:11.814Z,19.70
2019-02-16T15:18:42.594Z,20.17
2019-02-16T15:21:12.909Z,18.50
2019-02-16T15:23:43.196Z,20.10
2019-02-16T15:26:13.542Z,22.27
2019-02-16T15:28:44.956Z,21.15
2019-02-16T15:31:15.316Z,21.20
2019-02-16T15:33:45.616Z,20.52
2019-02-16T15:36:23.657Z,20.65
2019-02-16T15:38:48.225Z,20.02
2019-02-16T15:41:20.010Z,20.62
2019-02-16T15:43:50.621Z,19.82
2019-02-16T15:46:22.206Z,18.15
2019-02-16T15:48:52.864Z,20.80
2019-02-16T15:51:24.505Z,20.45
2019-02-16T15:53:54.859Z,20.62
2019-02-16T15:56:25.251Z,19.85
2019-02-16T15:58:55.515Z,20.32
2019-02-16T16:01:25.882Z,21.42
2019-02-16T16:03:56.588Z,20.72
2019-02-16T16:06:26.905Z,20.12
2019-02-16T16:09:01.943Z,21.05
2019-02-16T16:11:51.330Z,19.20
2019-02-16T16:14:34.729Z,19.60
2019-02-16T16:17:17.314Z,19.62
2019-02-16T16:20:07.369Z,19.52
2019-02-16T16:22:44.288Z,20.37
2019-02-16T16:25:34.169Z,20.90
2019-02-16T16:28:14.019Z,20.97
2019-02-16T16:30:53.571Z,21.45
2019-02-16T16:33:52.359Z,22.70
2019-02-16T16:36:31.517Z,22.75
2019-02-16T16:39:20.435Z,21.82
2019-02-16T16:42:13.267Z,21.62
2019-02-16T16:44:56.920Z,21.40
2019-02-16T16:47:58.759Z,20.32
2019-02-16T16:50:47.097Z,19.77
2019-02-16T16:53:33.931Z,20.43
2019-02-16T16:56:27.989Z,21.45
2019-02-16T16:59:22.128Z,21.27
2019-02-16T17:02:00.709Z,20.95
2019-02-16T17:04:43.109Z,21.70
2019-02-16T17:07:38.806Z,21.62
2019-02-16T17:10:19.935Z,21.65
2019-02-16T17:13:25.667Z,22.82
2019-02-16T17:16:07.566Z,21.40
2019-02-16T17:18:57.191Z,22.17
2019-02-16T17:22:03.816Z,22.85
2019-02-16T17:24:56.071Z,24.43
2019-02-16T17:27:45.881Z,23.85
2019-02-16T17:30:38.103Z,23.70
2019-02-16T17:33:15.019Z,22.75
2019-02-16T17:35:56.875Z,23.70
2019-02-16T17:38:53.128Z,23.73
2019-02-16T17:41:38.940Z,23.95
2019-02-16T17:44:34.439Z,24.30
2019-02-16T17:47:13.479Z,24.52
2019-02-16T17:50:01.195Z,24.02
2019-02-16T17:52:42.980Z,23.42
2019-02-16T17:55:38.454Z,24.10
2019-02-16T17:58:34.946Z,25.52
2019-02-16T18:01:13.296Z,25.62
2019-02-16T18:03:55.288Z,25.85
2019-02-16T18:06:43.510Z,25.68
2019-02-16T18:09:29.227Z,26.75
2019-02-16T18:12:34.015Z,25.97
2019-02-16T18:15:23.707Z,26.52
2019-02-16T18:18:10.414Z,25.77
2019-02-16T18:20:58.494Z,25.77
2019-02-16T18:23:37.432Z,25.60
2019-02-16T18:26:29.144Z,25.80
2019-02-16T18:29:18.567Z,25.10
2019-02-16T18:32:03.499Z,26.30
2019-02-16T18:34:48.217Z,24.52
2019-02-16T18:37:37.578Z,24.65
2019-02-16T18:40:28.964Z,25.35
2019-02-16T18:43:12.839Z,25.23
2019-02-16T18:45:59.672Z,25.72
2019-02-16T18:48:48.049Z,25.65
2019-02-16T18:51:25.812Z,25.85
2019-02-16T18:54:12.809Z,26.90
2019-02-16T18:57:06.125Z,26.82
2019-02-16T18:59:43.367Z,27.62
2019-02-16T19:02:27.880Z,29.02
2019-02-16T19:05:17.682Z,27.07
2019-02-16T19:08:05.700Z,26.50
2019-02-16T19:10:53.771Z,27.00
2019-02-16T19:13:41.946Z,28.02
2019-02-16T19:16:20.787Z,28.92
2019-02-16T19:19:20.743Z,28.70
2019-02-16T19:22:01.928Z,29.02
2019-02-16T19:24:39.484Z,29.05
2019-02-16T19:27:23.686Z,48.50
2019-02-16T19:30:25.509Z,46.45
2019-02-16T19:33:24.058Z,39.20
2019-02-16T19:36:19.537Z,37.15
2019-02-16T19:39:08.924Z,44.75
2019-02-16T19:41:48.968Z,36.93
2019-02-16T19:44:38.798Z,34.83
2019-02-16T19:47:38.367Z,32.35
2019-02-16T19:50:23.364Z,33.05
2019-02-16T19:53:11.731Z,32.90
2019-02-16T19:55:48.794Z,33.45
2019-02-16T19:58:32.386Z,34.15
2019-02-16T20:01:27.817Z,34.58
2019-02-16T20:04:17.188Z,38.30
2019-02-16T20:07:02.034Z,36.68
2019-02-16T20:09:50.803Z,35.10
2019-02-16T20:12:46.844Z,35.52
2019-02-16T20:15:35.549Z,35.55
2019-02-16T20:18:26.094Z,33.83
2019-02-16T20:21:14.383Z,33.08
2019-02-16T20:24:03.794Z,33.58
2019-02-16T20:26:57.664Z,30.45
2019-02-16T20:29:34.445Z,31.02
2019-02-16T20:32:11.371Z,34.03
2019-02-16T20:34:54.252Z,32.10
2019-02-16T20:37:39.721Z,33.92
2019-02-16T20:40:21.835Z,31.90
2019-02-16T20:42:59.550Z,33.35
2019-02-16T20:46:07.362Z,39.05
2019-02-16T20:48:58.794Z,42.03
2019-02-16T20:52:03.679Z,60.92
2019-02-16T20:54:40.539Z,50.70
2019-02-16T20:57:20.607Z,41.00
2019-02-16T21:00:09.975Z,34.85
2019-02-16T21:02:58.434Z,32.13
2019-02-16T21:05:49.304Z,34.15
2019-02-16T21:08:41.764Z,32.65
2019-02-16T21:11:29.774Z,33.58
2019-02-16T21:14:23.282Z,33.78
2019-02-16T21:17:12.686Z,33.92
2019-02-16T21:19:59.759Z,32.58
2019-02-16T21:22:36.627Z,32.40
2019-02-16T21:25:26.213Z,32.20
2019-02-16T21:28:15.953Z,30.65
2019-02-16T21:31:01.023Z,31.55
2019-02-16T21:33:37.216Z,31.33
2019-02-16T21:36:32.456Z,31.50
2019-02-16T21:39:24.628Z,29.50
2019-02-16T21:42:17.011Z,31.12
2019-02-16T21:45:13.363Z,32.05
2019-02-16T21:48:01.587Z,34.60
2019-02-16T21:50:51.040Z,32.85
2019-02-16T21:53:40.452Z,33.70
2019-02-16T21:56:18.276Z,35.17
2019-02-16T21:59:01.866Z,37.33
2019-02-16T22:01:47.721Z,39.45
2019-02-16T22:04:23.366Z,38.63
2019-02-16T22:07:13.477Z,38.67
2019-02-16T22:10:02.915Z,33.20
2019-02-16T22:13:01.492Z,32.75
2019-02-16T22:15:31.857Z,31.35
2019-02-16T22:18:02.268Z,32.13
2019-02-16T22:20:32.609Z,31.90
2019-02-16T22:23:03.808Z,33.30
2019-02-16T22:25:34.180Z,31.15
2019-02-16T22:28:04.825Z,32.33
2019-02-16T22:30:35.166Z,31.00
2019-02-16T22:33:06.255Z,31.37
2019-02-16T22:35:36.846Z,29.77
2019-02-16T22:38:07.245Z,28.47
2019-02-16T22:40:37.624Z,29.45
2019-02-16T22:43:07.986Z,29.77
2019-02-16T22:45:38.326Z,33.45
2019-02-16T22:48:08.955Z,33.25
2019-02-16T22:50:39.889Z,33.73
2019-02-16T22:53:10.525Z,34.90
2019-02-16T22:55:40.859Z,35.65
2019-02-16T22:58:13.835Z,34.15
2019-02-16T23:00:54.213Z,33.92
2019-02-16T23:03:24.892Z,34.48
2019-02-16T23:05:55.244Z,34.53
2019-02-16T23:08:25.622Z,33.78
2019-02-16T23:10:55.996Z,35.25
2019-02-16T23:13:26.330Z,35.08
2019-02-16T23:15:57.753Z,35.33
2019-02-16T23:18:28.175Z,34.78
2019-02-16T23:20:58.634Z,32.60
2019-02-16T23:23:28.952Z,33.60
2019-02-16T23:25:59.709Z,37.03
2019-02-16T23:28:38.674Z,35.38
2019-02-16T23:31:02.152Z,36.70
2019-02-16T23:33:33.182Z,34.27
2019-02-16T23:36:03.633Z,34.15
2019-02-16T23:38:33.972Z,35.13
2019-02-16T23:41:06.360Z,36.05
2019-02-16T23:43:36.307Z,37.10
2019-02-16T23:46:06.727Z,35.83
2019-02-16T23:48:37.411Z,37.35
2019-02-16T23:51:07.733Z,36.98
2019-02-16T23:53:39.073Z,36.90
2019-02-16T23:56:09.643Z,38.17
2019-02-16T23:58:48.955Z,38.75
